createdAt,value
2023-01-25T00:01:48.591Z,1.80
2023-01-25T00:06:51.663Z,2.05
2023-01-25T00:11:56.256Z,1.63
2023-01-25T00:16:58.247Z,1.27
2023-01-25T00:22:00.564Z,1.52
2023-01-25T00:27:02.922Z,1.75
2023-01-25T00:32:27.577Z,1.70
2023-01-25T00:37:42.567Z,1.55
2023-01-25T00:42:44.422Z,1.48
2023-01-25T00:47:46.428Z,2.03
2023-01-25T00:52:48.280Z,1.60
2023-01-25T00:57:50.091Z,1.63
2023-01-25T01:02:52.298Z,1.55
2023-01-25T01:07:56.357Z,1.80
2023-01-25T01:12:58.446Z,1.45
2023-01-25T01:18:00.356Z,1.67
2023-01-25T01:23:02.144Z,1.92
2023-01-25T01:28:04.118Z,2.10
2023-01-25T01:33:07.141Z,1.55
2023-01-25T01:38:09.060Z,1.40
2023-01-25T01:43:22.050Z,1.67
2023-01-25T01:48:45.506Z,1.55
2023-01-25T01:53:53.274Z,1.70
2023-01-25T01:58:58.543Z,2.00
2023-01-25T02:04:01.881Z,1.92
2023-01-25T02:09:03.795Z,1.58
2023-01-25T02:14:06.860Z,1.73
2023-01-25T02:19:16.668Z,1.63
2023-01-25T02:24:29.356Z,1.55
2023-01-25T02:29:31.998Z,1.20
2023-01-25T02:34:33.913Z,1.83
2023-01-25T02:39:35.716Z,1.58
2023-01-25T02:44:38.917Z,1.25
2023-01-25T02:49:40.785Z,1.50
2023-01-25T02:54:43.125Z,1.30
2023-01-25T02:59:45.092Z,1.85
2023-01-25T03:04:47.009Z,1.40
2023-01-25T03:09:48.943Z,1.45
2023-01-25T03:14:51.114Z,1.70
2023-01-25T03:19:54.400Z,1.55
2023-01-25T03:24:57.498Z,1.23
2023-01-25T03:29:59.248Z,1.40
2023-01-25T03:35:01.364Z,1.75
2023-01-25T03:40:03.517Z,1.58
2023-01-25T03:45:06.282Z,1.83
2023-01-25T03:50:09.100Z,2.03
2023-01-25T03:55:11.629Z,1.38
2023-01-25T04:00:14.094Z,1.58
2023-01-25T04:05:16.320Z,1.30
2023-01-25T04:10:18.409Z,1.75
2023-01-25T04:15:20.589Z,1.30
2023-01-25T04:20:22.677Z,1.92
2023-01-25T04:25:24.742Z,1.40
2023-01-25T04:30:27.093Z,2.03
2023-01-25T04:35:29.039Z,1.77
2023-01-25T04:40:31.595Z,1.70
2023-01-25T04:45:33.964Z,1.58
2023-01-25T04:50:40.649Z,1.70
2023-01-25T04:55:47.237Z,1.77
2023-01-25T05:00:49.292Z,1.73
2023-01-25T05:05:51.871Z,2.30
2023-01-25T05:10:54.276Z,2.00
2023-01-25T05:15:58.989Z,1.98
2023-01-25T05:21:00.904Z,1.80
2023-01-25T05:26:28.776Z,1.80
2023-01-25T05:31:31.033Z,1.80
2023-01-25T05:36:33.113Z,2.00
2023-01-25T05:41:35.070Z,2.33
2023-01-25T05:46:36.976Z,1.90
2023-01-25T05:51:39.241Z,2.05
2023-01-25T05:56:41.438Z,2.30
2023-01-25T06:01:43.735Z,2.28
2023-01-25T06:06:45.646Z,1.40
2023-01-25T06:11:47.537Z,1.98
2023-01-25T06:16:49.581Z,2.80
2023-01-25T06:21:51.482Z,2.75
2023-01-25T06:26:53.408Z,3.30
2023-01-25T06:31:55.982Z,2.80
2023-01-25T06:36:57.834Z,3.15
2023-01-25T06:41:59.817Z,3.30
2023-01-25T06:47:01.872Z,3.33
2023-01-25T06:52:04.162Z,3.50
2023-01-25T06:57:06.456Z,2.88
2023-01-25T07:02:14.538Z,2.97
2023-01-25T07:07:16.384Z,3.33
2023-01-25T07:12:19.794Z,3.90
2023-01-25T07:17:21.728Z,3.83
2023-01-25T07:22:23.965Z,4.10
2023-01-25T07:27:26.006Z,3.63
2023-01-25T07:32:29.463Z,3.97
2023-01-25T07:37:31.556Z,2.53
2023-01-25T07:42:33.721Z,3.42
2023-01-25T07:47:37.188Z,3.00
2023-01-25T07:52:39.969Z,3.92
2023-01-25T07:57:42.089Z,3.53
2023-01-25T08:02:44.173Z,3.55
2023-01-25T08:07:46.449Z,3.20
2023-01-25T08:12:48.164Z,3.60
2023-01-25T08:17:50.379Z,3.55
2023-01-25T08:22:53.258Z,4.05
2023-01-25T08:27:55.535Z,4.60
2023-01-25T08:32:58.040Z,4.18
2023-01-25T08:38:00.053Z,4.47
2023-01-25T08:43:02.037Z,3.88
2023-01-25T08:48:04.297Z,4.47
2023-01-25T08:53:06.359Z,5.03
2023-01-25T08:58:11.439Z,4.90
2023-01-25T09:03:14.003Z,5.05
2023-01-25T09:08:15.879Z,4.55
2023-01-25T09:13:17.723Z,5.57
2023-01-25T09:18:19.845Z,5.57
2023-01-25T09:23:23.962Z,6.10
2023-01-25T09:28:27.100Z,6.30
2023-01-25T09:33:31.771Z,7.70
2023-01-25T09:38:34.266Z,5.63
2023-01-25T09:43:55.677Z,5.63
2023-01-25T09:49:28.217Z,5.57
2023-01-25T09:54:42.375Z,5.95
2023-01-25T09:59:51.775Z,5.90
2023-01-25T10:04:57.857Z,4.97
2023-01-25T10:10:07.801Z,5.53
2023-01-25T10:15:34.736Z,6.20
2023-01-25T10:20:46.187Z,5.75
2023-01-25T10:26:28.145Z,5.43
2023-01-25T10:31:40.471Z,5.68
2023-01-25T10:36:44.606Z,4.75
2023-01-25T10:42:15.892Z,5.70
2023-01-25T10:47:33.436Z,7.35
2023-01-25T10:52:39.396Z,5.75
2023-01-25T10:57:58.077Z,6.82
2023-01-25T11:03:00.451Z,5.32
2023-01-25T11:08:31.523Z,6.32
2023-01-25T11:13:33.751Z,6.38
2023-01-25T11:18:35.790Z,5.88
2023-01-25T11:23:37.848Z,7.28
2023-01-25T11:28:40.827Z,6.30
2023-01-25T11:33:43.253Z,9.70
2023-01-25T11:39:04.246Z,10.90
2023-01-25T11:44:36.596Z,11.98
2023-01-25T11:50:20.778Z,11.23
2023-01-25T11:55:54.856Z,9.90
2023-01-25T12:01:17.990Z,9.77
2023-01-25T12:06:51.561Z,9.23
2023-01-25T12:11:53.628Z,9.30
2023-01-25T12:17:14.783Z,8.57
2023-01-25T12:22:25.698Z,8.73
2023-01-25T12:27:52.534Z,8.55
2023-01-25T12:33:13.897Z,8.68
2023-01-25T12:38:26.480Z,7.43
2023-01-25T12:43:42.477Z,9.90
2023-01-25T12:48:50.569Z,9.77
2023-01-25T12:53:53.702Z,8.13
2023-01-25T12:59:15.046Z,7.90
2023-01-25T13:04:40.872Z,8.93
2023-01-25T13:09:56.680Z,7.15
2023-01-25T13:14:58.714Z,7.95
2023-01-25T13:20:00.744Z,7.97
2023-01-25T13:25:03.218Z,8.73
2023-01-25T13:30:20.124Z,8.10
2023-01-25T13:35:32.618Z,7.78
2023-01-25T13:40:38.955Z,8.45
2023-01-25T13:45:42.162Z,7.47
2023-01-25T13:51:01.067Z,8.20
2023-01-25T13:56:03.653Z,8.55
2023-01-25T14:01:16.350Z,7.35
2023-01-25T14:06:24.207Z,8.40
2023-01-25T14:11:31.644Z,7.95
2023-01-25T14:16:33.672Z,8.80
2023-01-25T14:21:35.744Z,8.00
2023-01-25T14:26:59.365Z,7.97
2023-01-25T14:32:04.737Z,7.78
2023-01-25T14:37:19.065Z,6.93
2023-01-25T14:42:21.407Z,6.78
2023-01-25T14:47:31.885Z,7.30
2023-01-25T14:52:33.946Z,7.70
2023-01-25T14:57:39.147Z,6.22
2023-01-25T15:02:47.037Z,6.88
2023-01-25T15:07:52.633Z,7.30
2023-01-25T15:13:13.699Z,6.78
2023-01-25T15:18:48.727Z,6.18
2023-01-25T15:23:51.849Z,5.20
2023-01-25T15:28:57.229Z,6.03
2023-01-25T15:34:01.747Z,6.18
2023-01-25T15:39:03.777Z,7.30
2023-01-25T15:44:06.118Z,6.55
2023-01-25T15:49:12.072Z,5.75
2023-01-25T15:54:14.151Z,6.00
2023-01-25T15:59:18.189Z,6.97
2023-01-25T16:04:20.135Z,5.90
2023-01-25T16:09:24.308Z,5.47
2023-01-25T16:14:31.712Z,6.22
2023-01-25T16:19:33.961Z,5.38
2023-01-25T16:24:39.409Z,4.75
2023-01-25T16:29:41.747Z,5.63
2023-01-25T16:34:43.959Z,4.63
2023-01-25T16:39:46.160Z,4.50
2023-01-25T16:44:48.951Z,6.03
2023-01-25T16:49:50.883Z,5.90
2023-01-25T16:54:52.677Z,5.93
2023-01-25T16:59:54.640Z,5.68
2023-01-25T17:04:56.573Z,5.60
2023-01-25T17:09:58.738Z,5.10
2023-01-25T17:15:00.679Z,5.75
2023-01-25T17:20:02.896Z,5.18
2023-01-25T17:25:06.103Z,5.28
2023-01-25T17:30:08.842Z,4.20
2023-01-25T17:35:10.816Z,5.18
2023-01-25T17:40:13.081Z,7.13
2023-01-25T17:45:14.990Z,6.57
2023-01-25T17:50:17.366Z,7.35
2023-01-25T17:55:19.170Z,6.95
2023-01-25T18:00:21.285Z,6.80
2023-01-25T18:05:23.658Z,6.53
2023-01-25T18:10:25.683Z,6.05
2023-01-25T18:15:28.009Z,6.47
2023-01-25T18:20:31.446Z,5.60
2023-01-25T18:25:35.231Z,5.22
2023-01-25T18:30:43.445Z,5.28
2023-01-25T18:35:48.725Z,6.03
2023-01-25T18:40:51.054Z,5.65
2023-01-25T18:45:58.128Z,5.90
2023-01-25T18:51:05.405Z,6.68
2023-01-25T18:56:19.250Z,5.55
2023-01-25T19:01:23.263Z,5.13
2023-01-25T19:06:25.473Z,5.65
2023-01-25T19:11:27.725Z,5.63
2023-01-25T19:16:29.693Z,6.82
2023-01-25T19:21:31.429Z,6.50
2023-01-25T19:26:33.567Z,6.38
2023-01-25T19:31:37.566Z,7.10
2023-01-25T19:36:46.003Z,5.78
2023-01-25T19:41:48.150Z,5.40
2023-01-25T19:46:50.102Z,8.02
2023-01-25T19:51:53.747Z,6.97
2023-01-25T19:56:56.510Z,6.18
2023-01-25T20:01:58.524Z,6.80
2023-01-25T20:07:00.387Z,6.45
2023-01-25T20:12:06.253Z,6.88
2023-01-25T20:17:08.208Z,6.22
2023-01-25T20:22:10.515Z,5.40
2023-01-25T20:27:12.446Z,5.95
2023-01-25T20:32:30.708Z,6.53
2023-01-25T20:37:34.108Z,5.80
2023-01-25T20:42:36.804Z,5.90
2023-01-25T20:47:39.227Z,5.50
2023-01-25T20:52:41.255Z,6.03
2023-01-25T20:57:43.291Z,5.20
2023-01-25T21:02:45.299Z,5.88
2023-01-25T21:07:47.292Z,6.75
2023-01-25T21:12:49.145Z,6.97
2023-01-25T21:17:52.883Z,7.22
2023-01-25T21:22:54.991Z,6.95
2023-01-25T21:27:56.805Z,7.43
2023-01-25T21:32:58.587Z,5.45
2023-01-25T21:38:00.527Z,5.72
2023-01-25T21:43:02.377Z,6.68
2023-01-25T21:48:04.364Z,4.80
2023-01-25T21:53:06.075Z,5.97
2023-01-25T21:58:07.924Z,5.95
2023-01-25T22:03:09.717Z,7.65
2023-01-25T22:08:11.753Z,7.30
2023-01-25T22:13:13.516Z,7.03
2023-01-25T22:18:15.375Z,7.50
2023-01-25T22:23:17.513Z,8.13
2023-01-25T22:28:19.917Z,7.20
2023-01-25T22:33:21.854Z,8.30
2023-01-25T22:38:24.114Z,6.47
2023-01-25T22:43:26.070Z,7.60
2023-01-25T22:48:28.206Z,8.38
2023-01-25T22:53:30.481Z,7.20
2023-01-25T22:58:34.206Z,7.57
2023-01-25T23:03:36.717Z,7.57
2023-01-25T23:08:40.516Z,7.57
2023-01-25T23:13:43.155Z,7.38
2023-01-25T23:18:51.070Z,6.30
2023-01-25T23:23:57.355Z,6.40
2023-01-25T23:28:59.290Z,6.88
2023-01-25T23:34:03.516Z,7.15
2023-01-25T23:39:05.574Z,7.05
2023-01-25T23:44:07.763Z,6.60
2023-01-25T23:49:09.680Z,6.20
2023-01-25T23:54:11.724Z,7.18
2023-01-25T23:59:13.607Z,6.53
